sensor_id;sensor_type;location;lat;lon;timestamp;P1;durP1;ratioP1;P2;durP2;ratioP2
53751;SDS011;41095;53.090;6.692;2023-03-08T00:00:15;3.42;;;1.80;;
53751;SDS011;41095;53.090;6.692;2023-03-08T00:02:42;3.20;;;1.95;;
53751;SDS011;41095;53.090;6.692;2023-03-08T00:05:08;2.58;;;1.77;;
53751;SDS011;41095;53.090;6.692;2023-03-08T00:07:35;3.33;;;1.50;;
53751;SDS011;41095;53.090;6.692;2023-03-08T00:10:01;3.45;;;1.40;;
53751;SDS011;41095;53.090;6.692;2023-03-08T00:12:27;3.53;;;1.75;;
53751;SDS011;41095;53.090;6.692;2023-03-08T00:14:53;5.07;;;1.98;;
53751;SDS011;41095;53.090;6.692;2023-03-08T00:17:19;1.80;;;1.38;;
53751;SDS011;41095;53.090;6.692;2023-03-08T00:19:45;2.22;;;1.70;;
53751;SDS011;41095;53.090;6.692;2023-03-08T00:22:10;2.78;;;1.98;;
53751;SDS011;41095;53.090;6.692;2023-03-08T00:24:36;3.50;;;1.50;;
53751;SDS011;41095;53.090;6.692;2023-03-08T00:27:02;1.95;;;1.73;;
53751;SDS011;41095;53.090;6.692;2023-03-08T00:29:29;2.85;;;1.60;;
53751;SDS011;41095;53.090;6.692;2023-03-08T00:31:55;2.70;;;1.88;;
53751;SDS011;41095;53.090;6.692;2023-03-08T00:34:21;2.90;;;1.73;;
53751;SDS011;41095;53.090;6.692;2023-03-08T00:36:46;2.38;;;2.15;;
53751;SDS011;41095;53.090;6.692;2023-03-08T00:39:12;2.47;;;2.28;;
53751;SDS011;41095;53.090;6.692;2023-03-08T00:41:40;3.38;;;2.05;;
53751;SDS011;41095;53.090;6.692;2023-03-08T00:44:06;2.20;;;1.98;;
53751;SDS011;41095;53.090;6.692;2023-03-08T00:46:32;3.45;;;1.63;;
53751;SDS011;41095;53.090;6.692;2023-03-08T00:48:57;2.10;;;1.90;;
53751;SDS011;41095;53.090;6.692;2023-03-08T00:51:23;2.35;;;1.50;;
53751;SDS011;41095;53.090;6.692;2023-03-08T00:53:50;3.83;;;1.75;;
53751;SDS011;41095;53.090;6.692;2023-03-08T00:56:16;3.28;;;1.77;;
53751;SDS011;41095;53.090;6.692;2023-03-08T00:58:41;2.67;;;2.05;;
53751;SDS011;41095;53.090;6.692;2023-03-08T01:01:08;3.97;;;2.45;;
53751;SDS011;41095;53.090;6.692;2023-03-08T01:03:38;3.40;;;2.17;;
53751;SDS011;41095;53.090;6.692;2023-03-08T01:06:05;3.00;;;2.10;;
53751;SDS011;41095;53.090;6.692;2023-03-08T01:08:33;3.70;;;1.70;;
53751;SDS011;41095;53.090;6.692;2023-03-08T01:10:59;3.63;;;1.77;;
53751;SDS011;41095;53.090;6.692;2023-03-08T01:13:26;1.92;;;1.67;;
53751;SDS011;41095;53.090;6.692;2023-03-08T01:15:53;1.63;;;1.52;;
53751;SDS011;41095;53.090;6.692;2023-03-08T01:18:19;2.40;;;1.88;;
53751;SDS011;41095;53.090;6.692;2023-03-08T01:20:53;3.72;;;2.50;;
53751;SDS011;41095;53.090;6.692;2023-03-08T01:23:23;4.30;;;1.83;;
53751;SDS011;41095;53.090;6.692;2023-03-08T01:25:56;3.08;;;1.90;;
53751;SDS011;41095;53.090;6.692;2023-03-08T01:28:29;2.08;;;1.60;;
53751;SDS011;41095;53.090;6.692;2023-03-08T01:31:02;3.30;;;1.65;;
53751;SDS011;41095;53.090;6.692;2023-03-08T01:33:30;1.85;;;1.70;;
53751;SDS011;41095;53.090;6.692;2023-03-08T01:35:56;2.22;;;2.00;;
53751;SDS011;41095;53.090;6.692;2023-03-08T01:38:22;1.63;;;1.50;;
53751;SDS011;41095;53.090;6.692;2023-03-08T01:40:48;2.35;;;1.73;;
53751;SDS011;41095;53.090;6.692;2023-03-08T01:43:22;3.08;;;1.52;;
53751;SDS011;41095;53.090;6.692;2023-03-08T01:48:53;2.00;;;1.60;;
53751;SDS011;41095;53.090;6.692;2023-03-08T01:51:30;2.70;;;1.58;;
53751;SDS011;41095;53.090;6.692;2023-03-08T01:54:03;4.18;;;1.92;;
53751;SDS011;41095;53.090;6.692;2023-03-08T01:56:35;4.05;;;1.77;;
53751;SDS011;41095;53.090;6.692;2023-03-08T01:59:02;3.53;;;1.70;;
53751;SDS011;41095;53.090;6.692;2023-03-08T02:01:28;4.78;;;1.85;;
53751;SDS011;41095;53.090;6.692;2023-03-08T02:03:55;3.72;;;1.98;;
53751;SDS011;41095;53.090;6.692;2023-03-08T02:06:20;5.57;;;1.90;;
53751;SDS011;41095;53.090;6.692;2023-03-08T02:08:47;1.92;;;1.50;;
53751;SDS011;41095;53.090;6.692;2023-03-08T02:11:12;2.15;;;1.83;;
53751;SDS011;41095;53.090;6.692;2023-03-08T02:13:41;4.97;;;1.80;;
53751;SDS011;41095;53.090;6.692;2023-03-08T02:16:08;2.85;;;1.85;;
53751;SDS011;41095;53.090;6.692;2023-03-08T02:18:47;1.48;;;1.30;;
53751;SDS011;41095;53.090;6.692;2023-03-08T02:21:23;2.45;;;1.40;;
53751;SDS011;41095;53.090;6.692;2023-03-08T02:23:50;2.50;;;1.85;;
53751;SDS011;41095;53.090;6.692;2023-03-08T02:26:16;3.65;;;1.90;;
53751;SDS011;41095;53.090;6.692;2023-03-08T02:28:42;2.78;;;1.98;;
53751;SDS011;41095;53.090;6.692;2023-03-08T02:31:08;3.70;;;1.48;;
53751;SDS011;41095;53.090;6.692;2023-03-08T02:33:35;2.45;;;1.70;;
53751;SDS011;41095;53.090;6.692;2023-03-08T02:36:01;4.38;;;1.85;;
53751;SDS011;41095;53.090;6.692;2023-03-08T02:38:28;3.58;;;1.77;;
53751;SDS011;41095;53.090;6.692;2023-03-08T02:40:54;4.45;;;2.00;;
53751;SDS011;41095;53.090;6.692;2023-03-08T02:43:20;4.55;;;2.10;;
53751;SDS011;41095;53.090;6.692;2023-03-08T02:45:46;2.20;;;2.00;;
53751;SDS011;41095;53.090;6.692;2023-03-08T02:48:12;3.33;;;2.20;;
53751;SDS011;41095;53.090;6.692;2023-03-08T02:50:38;1.85;;;1.75;;
53751;SDS011;41095;53.090;6.692;2023-03-08T02:53:04;2.05;;;1.67;;
53751;SDS011;41095;53.090;6.692;2023-03-08T02:55:30;1.85;;;1.52;;
53751;SDS011;41095;53.090;6.692;2023-03-08T02:58:00;2.65;;;1.80;;
53751;SDS011;41095;53.090;6.692;2023-03-08T03:00:27;3.47;;;2.08;;
53751;SDS011;41095;53.090;6.692;2023-03-08T03:02:53;3.28;;;2.28;;
53751;SDS011;41095;53.090;6.692;2023-03-08T03:05:18;2.15;;;1.90;;
53751;SDS011;41095;53.090;6.692;2023-03-08T03:07:44;2.20;;;1.95;;
53751;SDS011;41095;53.090;6.692;2023-03-08T03:10:10;1.90;;;1.77;;
53751;SDS011;41095;53.090;6.692;2023-03-08T03:12:37;4.45;;;2.17;;
53751;SDS011;41095;53.090;6.692;2023-03-08T03:15:03;3.42;;;1.90;;
53751;SDS011;41095;53.090;6.692;2023-03-08T03:17:30;2.42;;;1.88;;
53751;SDS011;41095;53.090;6.692;2023-03-08T03:19:57;4.82;;;2.20;;
53751;SDS011;41095;53.090;6.692;2023-03-08T03:22:22;2.20;;;1.40;;
53751;SDS011;41095;53.090;6.692;2023-03-08T03:24:49;2.63;;;2.30;;
53751;SDS011;41095;53.090;6.692;2023-03-08T03:27:15;4.63;;;2.03;;
53751;SDS011;41095;53.090;6.692;2023-03-08T03:29:42;2.83;;;2.28;;
53751;SDS011;41095;53.090;6.692;2023-03-08T03:32:07;2.20;;;2.00;;
53751;SDS011;41095;53.090;6.692;2023-03-08T03:34:33;4.50;;;1.98;;
53751;SDS011;41095;53.090;6.692;2023-03-08T03:36:59;4.75;;;2.25;;
53751;SDS011;41095;53.090;6.692;2023-03-08T03:39:24;2.60;;;2.03;;
53751;SDS011;41095;53.090;6.692;2023-03-08T03:41:50;2.25;;;2.05;;
53751;SDS011;41095;53.090;6.692;2023-03-08T03:44:16;1.90;;;1.80;;
53751;SDS011;41095;53.090;6.692;2023-03-08T03:46:41;2.33;;;1.63;;
53751;SDS011;41095;53.090;6.692;2023-03-08T03:49:07;1.88;;;1.73;;
53751;SDS011;41095;53.090;6.692;2023-03-08T03:51:33;3.53;;;2.10;;
53751;SDS011;41095;53.090;6.692;2023-03-08T03:53:58;4.32;;;2.63;;
53751;SDS011;41095;53.090;6.692;2023-03-08T03:56:25;3.35;;;2.15;;
53751;SDS011;41095;53.090;6.692;2023-03-08T03:58:52;4.68;;;2.13;;
53751;SDS011;41095;53.090;6.692;2023-03-08T04:01:20;3.17;;;2.00;;
53751;SDS011;41095;53.090;6.692;2023-03-08T04:03:49;2.58;;;1.80;;
53751;SDS011;41095;53.090;6.692;2023-03-08T04:06:16;2.08;;;1.83;;
53751;SDS011;41095;53.090;6.692;2023-03-08T04:08:47;3.72;;;2.35;;
53751;SDS011;41095;53.090;6.692;2023-03-08T04:11:15;2.30;;;1.90;;
53751;SDS011;41095;53.090;6.692;2023-03-08T04:13:43;4.78;;;2.13;;
53751;SDS011;41095;53.090;6.692;2023-03-08T04:16:10;2.83;;;1.92;;
53751;SDS011;41095;53.090;6.692;2023-03-08T04:18:41;2.00;;;1.88;;
53751;SDS011;41095;53.090;6.692;2023-03-08T04:21:07;4.65;;;2.10;;
53751;SDS011;41095;53.090;6.692;2023-03-08T04:23:34;4.35;;;2.10;;
53751;SDS011;41095;53.090;6.692;2023-03-08T04:26:00;3.70;;;2.20;;
53751;SDS011;41095;53.090;6.692;2023-03-08T04:28:26;3.10;;;1.80;;
53751;SDS011;41095;53.090;6.692;2023-03-08T04:30:53;2.75;;;1.92;;
53751;SDS011;41095;53.090;6.692;2023-03-08T04:33:19;3.83;;;2.25;;
53751;SDS011;41095;53.090;6.692;2023-03-08T04:35:45;3.28;;;2.25;;
53751;SDS011;41095;53.090;6.692;2023-03-08T04:38:11;2.03;;;1.92;;
53751;SDS011;41095;53.090;6.692;2023-03-08T04:40:37;2.45;;;2.25;;
53751;SDS011;41095;53.090;6.692;2023-03-08T04:43:23;1.85;;;1.75;;
53751;SDS011;41095;53.090;6.692;2023-03-08T04:45:49;3.92;;;2.47;;
53751;SDS011;41095;53.090;6.692;2023-03-08T04:48:15;3.47;;;2.50;;
53751;SDS011;41095;53.090;6.692;2023-03-08T04:50:40;4.47;;;3.22;;
53751;SDS011;41095;53.090;6.692;2023-03-08T04:53:06;3.05;;;2.58;;
53751;SDS011;41095;53.090;6.692;2023-03-08T04:55:32;3.97;;;2.75;;
53751;SDS011;41095;53.090;6.692;2023-03-08T04:58:00;4.30;;;3.40;;
53751;SDS011;41095;53.090;6.692;2023-03-08T05:00:26;2.40;;;2.17;;
53751;SDS011;41095;53.090;6.692;2023-03-08T05:02:52;2.38;;;2.17;;
53751;SDS011;41095;53.090;6.692;2023-03-08T05:05:18;6.43;;;2.75;;
53751;SDS011;41095;53.090;6.692;2023-03-08T05:07:43;4.35;;;2.70;;
53751;SDS011;41095;53.090;6.692;2023-03-08T05:10:09;2.78;;;2.58;;
53751;SDS011;41095;53.090;6.692;2023-03-08T05:12:35;3.30;;;3.00;;
53751;SDS011;41095;53.090;6.692;2023-03-08T05:15:01;2.50;;;2.30;;
53751;SDS011;41095;53.090;6.692;2023-03-08T05:17:26;3.33;;;2.97;;
53751;SDS011;41095;53.090;6.692;2023-03-08T05:19:52;6.10;;;3.90;;
53751;SDS011;41095;53.090;6.692;2023-03-08T05:22:18;3.92;;;3.60;;
53751;SDS011;41095;53.090;6.692;2023-03-08T05:24:44;4.20;;;3.90;;
53751;SDS011;41095;53.090;6.692;2023-03-08T05:27:10;5.57;;;4.55;;
53751;SDS011;41095;53.090;6.692;2023-03-08T05:29:36;5.18;;;4.60;;
53751;SDS011;41095;53.090;6.692;2023-03-08T05:32:02;4.45;;;4.05;;
53751;SDS011;41095;53.090;6.692;2023-03-08T05:34:28;5.55;;;4.78;;
53751;SDS011;41095;53.090;6.692;2023-03-08T05:36:54;6.88;;;5.53;;
53751;SDS011;41095;53.090;6.692;2023-03-08T05:39:21;6.72;;;6.13;;
53751;SDS011;41095;53.090;6.692;2023-03-08T05:41:47;9.27;;;6.25;;
53751;SDS011;41095;53.090;6.692;2023-03-08T05:44:12;8.57;;;6.47;;
53751;SDS011;41095;53.090;6.692;2023-03-08T05:46:38;8.30;;;7.28;;
53751;SDS011;41095;53.090;6.692;2023-03-08T05:49:04;8.57;;;7.78;;
53751;SDS011;41095;53.090;6.692;2023-03-08T05:51:31;6.93;;;6.22;;
53751;SDS011;41095;53.090;6.692;2023-03-08T05:53:57;9.07;;;8.27;;
53751;SDS011;41095;53.090;6.692;2023-03-08T05:56:23;9.10;;;8.20;;
53751;SDS011;41095;53.090;6.692;2023-03-08T05:58:49;8.13;;;7.32;;
53751;SDS011;41095;53.090;6.692;2023-03-08T06:01:23;9.75;;;8.70;;
53751;SDS011;41095;53.090;6.692;2023-03-08T06:03:51;9.98;;;9.07;;
53751;SDS011;41095;53.090;6.692;2023-03-08T06:06:18;9.10;;;8.20;;
53751;SDS011;41095;53.090;6.692;2023-03-08T06:08:45;8.75;;;7.95;;
53751;SDS011;41095;53.090;6.692;2023-03-08T06:11:12;9.90;;;7.88;;
53751;SDS011;41095;53.090;6.692;2023-03-08T06:13:38;8.88;;;8.07;;
53751;SDS011;41095;53.090;6.692;2023-03-08T06:16:04;9.23;;;7.65;;
53751;SDS011;41095;53.090;6.692;2023-03-08T06:18:30;9.48;;;8.65;;
53751;SDS011;41095;53.090;6.692;2023-03-08T06:21:04;9.80;;;8.48;;
53751;SDS011;41095;53.090;6.692;2023-03-08T06:23:36;9.63;;;8.63;;
53751;SDS011;41095;53.090;6.692;2023-03-08T06:26:02;9.80;;;8.90;;
53751;SDS011;41095;53.090;6.692;2023-03-08T06:28:29;10.43;;;9.40;;
53751;SDS011;41095;53.090;6.692;2023-03-08T06:30:55;10.45;;;9.05;;
53751;SDS011;41095;53.090;6.692;2023-03-08T06:33:22;10.48;;;9.38;;
53751;SDS011;41095;53.090;6.692;2023-03-08T06:35:56;9.10;;;8.18;;
53751;SDS011;41095;53.090;6.692;2023-03-08T06:38:23;10.65;;;9.50;;
53751;SDS011;41095;53.090;6.692;2023-03-08T06:40:50;9.77;;;8.88;;
53751;SDS011;41095;53.090;6.692;2023-03-08T06:43:16;11.38;;;9.20;;
53751;SDS011;41095;53.090;6.692;2023-03-08T06:45:42;8.75;;;7.95;;
53751;SDS011;41095;53.090;6.692;2023-03-08T06:48:07;10.55;;;8.77;;
53751;SDS011;41095;53.090;6.692;2023-03-08T06:50:33;10.15;;;9.02;;
53751;SDS011;41095;53.090;6.692;2023-03-08T06:52:59;9.38;;;8.52;;
53751;SDS011;41095;53.090;6.692;2023-03-08T06:55:25;9.25;;;8.27;;
53751;SDS011;41095;53.090;6.692;2023-03-08T06:57:51;9.63;;;8.25;;
53751;SDS011;41095;53.090;6.692;2023-03-08T07:00:20;8.63;;;7.93;;
53751;SDS011;41095;53.090;6.692;2023-03-08T07:02:46;10.18;;;9.20;;
53751;SDS011;41095;53.090;6.692;2023-03-08T07:05:13;8.55;;;7.75;;
53751;SDS011;41095;53.090;6.692;2023-03-08T07:07:42;9.23;;;8.43;;
53751;SDS011;41095;53.090;6.692;2023-03-08T07:10:08;10.63;;;8.90;;
53751;SDS011;41095;53.090;6.692;2023-03-08T07:12:36;10.30;;;7.47;;
53751;SDS011;41095;53.090;6.692;2023-03-08T07:15:07;10.18;;;8.55;;
53751;SDS011;41095;53.090;6.692;2023-03-08T07:17:34;9.10;;;8.25;;
53751;SDS011;41095;53.090;6.692;2023-03-08T07:20:00;10.07;;;9.05;;
53751;SDS011;41095;53.090;6.692;2023-03-08T07:22:29;9.15;;;8.35;;
53751;SDS011;41095;53.090;6.692;2023-03-08T07:24:55;8.73;;;7.90;;
53751;SDS011;41095;53.090;6.692;2023-03-08T07:27:21;7.30;;;6.70;;
53751;SDS011;41095;53.090;6.692;2023-03-08T07:29:52;7.85;;;7.05;;
53751;SDS011;41095;53.090;6.692;2023-03-08T07:32:18;8.40;;;7.68;;
53751;SDS011;41095;53.090;6.692;2023-03-08T07:34:44;8.30;;;7.25;;
53751;SDS011;41095;53.090;6.692;2023-03-08T07:37:13;8.52;;;7.20;;
53751;SDS011;41095;53.090;6.692;2023-03-08T07:39:40;7.90;;;6.80;;
53751;SDS011;41095;53.090;6.692;2023-03-08T07:42:07;8.00;;;7.20;;
53751;SDS011;41095;53.090;6.692;2023-03-08T07:44:34;10.20;;;8.43;;
53751;SDS011;41095;53.090;6.692;2023-03-08T07:47:01;9.65;;;8.75;;
53751;SDS011;41095;53.090;6.692;2023-03-08T07:49:28;11.40;;;8.23;;
53751;SDS011;41095;53.090;6.692;2023-03-08T07:51:53;8.40;;;7.50;;
53751;SDS011;41095;53.090;6.692;2023-03-08T07:54:20;9.30;;;8.27;;
53751;SDS011;41095;53.090;6.692;2023-03-08T07:56:45;8.60;;;7.75;;
53751;SDS011;41095;53.090;6.692;2023-03-08T07:59:11;9.45;;;8.43;;
53751;SDS011;41095;53.090;6.692;2023-03-08T08:01:37;8.25;;;7.55;;
53751;SDS011;41095;53.090;6.692;2023-03-08T08:04:03;8.65;;;7.30;;
53751;SDS011;41095;53.090;6.692;2023-03-08T08:06:29;8.55;;;7.75;;
53751;SDS011;41095;53.090;6.692;2023-03-08T08:08:55;11.02;;;7.90;;
53751;SDS011;41095;53.090;6.692;2023-03-08T08:11:21;8.57;;;7.88;;
53751;SDS011;41095;53.090;6.692;2023-03-08T08:13:48;8.60;;;7.80;;
53751;SDS011;41095;53.090;6.692;2023-03-08T08:16:15;8.63;;;7.22;;
53751;SDS011;41095;53.090;6.692;2023-03-08T08:18:42;8.55;;;7.50;;
53751;SDS011;41095;53.090;6.692;2023-03-08T08:21:08;10.88;;;9.15;;
53751;SDS011;41095;53.090;6.692;2023-03-08T08:23:36;8.80;;;7.97;;
53751;SDS011;41095;53.090;6.692;2023-03-08T08:26:04;8.20;;;7.40;;
53751;SDS011;41095;53.090;6.692;2023-03-08T08:28:41;9.40;;;8.60;;
53751;SDS011;41095;53.090;6.692;2023-03-08T08:31:09;8.27;;;7.47;;
53751;SDS011;41095;53.090;6.692;2023-03-08T08:33:39;8.35;;;7.55;;
53751;SDS011;41095;53.090;6.692;2023-03-08T08:36:06;8.90;;;7.85;;
53751;SDS011;41095;53.090;6.692;2023-03-08T08:38:35;8.15;;;7.35;;
53751;SDS011;41095;53.090;6.692;2023-03-08T08:41:02;9.05;;;8.18;;
53751;SDS011;41095;53.090;6.692;2023-03-08T08:43:29;8.90;;;7.20;;
53751;SDS011;41095;53.090;6.692;2023-03-08T08:45:56;8.90;;;8.00;;
53751;SDS011;41095;53.090;6.692;2023-03-08T08:48:23;8.27;;;7.38;;
53751;SDS011;41095;53.090;6.692;2023-03-08T08:50:50;8.13;;;7.20;;
53751;SDS011;41095;53.090;6.692;2023-03-08T08:53:16;7.90;;;6.88;;
53751;SDS011;41095;53.090;6.692;2023-03-08T08:55:42;9.20;;;8.30;;
53751;SDS011;41095;53.090;6.692;2023-03-08T08:58:08;8.60;;;7.32;;
53751;SDS011;41095;53.090;6.692;2023-03-08T09:00:34;7.10;;;6.40;;
53751;SDS011;41095;53.090;6.692;2023-03-08T09:03:00;8.32;;;6.05;;
53751;SDS011;41095;53.090;6.692;2023-03-08T09:05:28;10.05;;;6.90;;
53751;SDS011;41095;53.090;6.692;2023-03-08T09:07:55;7.35;;;6.55;;
53751;SDS011;41095;53.090;6.692;2023-03-08T09:10:22;6.47;;;5.88;;
53751;SDS011;41095;53.090;6.692;2023-03-08T09:12:49;8.55;;;6.70;;
53751;SDS011;41095;53.090;6.692;2023-03-08T09:15:15;7.47;;;6.55;;
53751;SDS011;41095;53.090;6.692;2023-03-08T09:17:41;8.73;;;6.00;;
53751;SDS011;41095;53.090;6.692;2023-03-08T09:20:07;6.35;;;5.78;;
53751;SDS011;41095;53.090;6.692;2023-03-08T09:22:34;6.93;;;6.32;;
53751;SDS011;41095;53.090;6.692;2023-03-08T09:25:03;6.68;;;6.05;;
53751;SDS011;41095;53.090;6.692;2023-03-08T09:27:30;6.93;;;6.28;;
53751;SDS011;41095;53.090;6.692;2023-03-08T09:29:56;7.68;;;6.95;;
53751;SDS011;41095;53.090;6.692;2023-03-08T09:32:22;6.43;;;5.55;;
53751;SDS011;41095;53.090;6.692;2023-03-08T09:34:48;6.72;;;5.35;;
53751;SDS011;41095;53.090;6.692;2023-03-08T09:37:15;5.18;;;4.30;;
53751;SDS011;41095;53.090;6.692;2023-03-08T09:39:41;6.63;;;6.03;;
53751;SDS011;41095;53.090;6.692;2023-03-08T09:42:14;7.05;;;6.45;;
53751;SDS011;41095;53.090;6.692;2023-03-08T09:47:47;7.45;;;5.95;;
53751;SDS011;41095;53.090;6.692;2023-03-08T09:50:42;7.40;;;5.38;;
53751;SDS011;41095;53.090;6.692;2023-03-08T09:53:15;5.75;;;5.15;;
53751;SDS011;41095;53.090;6.692;2023-03-08T09:55:54;5.57;;;5.05;;
53751;SDS011;41095;53.090;6.692;2023-03-08T10:14:31;5.93;;;4.32;;
53751;SDS011;41095;53.090;6.692;2023-03-08T10:17:04;4.85;;;4.32;;
53751;SDS011;41095;53.090;6.692;2023-03-08T10:19:37;4.63;;;3.88;;
53751;SDS011;41095;53.090;6.692;2023-03-08T10:22:12;5.10;;;4.20;;
53751;SDS011;41095;53.090;6.692;2023-03-08T10:24:48;5.47;;;4.75;;
53751;SDS011;41095;53.090;6.692;2023-03-08T10:27:23;4.47;;;3.45;;
53751;SDS011;41095;53.090;6.692;2023-03-08T10:29:59;6.18;;;3.83;;
53751;SDS011;41095;53.090;6.692;2023-03-08T10:32:40;3.63;;;3.33;;
53751;SDS011;41095;53.090;6.692;2023-03-08T10:35:07;3.28;;;2.95;;
53751;SDS011;41095;53.090;6.692;2023-03-08T10:37:33;3.40;;;3.10;;
53751;SDS011;41095;53.090;6.692;2023-03-08T10:39:59;5.38;;;4.18;;
53751;SDS011;41095;53.090;6.692;2023-03-08T10:42:29;5.05;;;4.03;;
53751;SDS011;41095;53.090;6.692;2023-03-08T10:45:00;2.67;;;2.45;;
53751;SDS011;41095;53.090;6.692;2023-03-08T10:47:33;4.72;;;3.67;;
53751;SDS011;41095;53.090;6.692;2023-03-08T10:50:16;3.67;;;3.38;;
53751;SDS011;41095;53.090;6.692;2023-03-08T10:52:44;7.40;;;3.67;;
53751;SDS011;41095;53.090;6.692;2023-03-08T10:57:47;3.22;;;3.00;;
53751;SDS011;41095;53.090;6.692;2023-03-08T11:02:44;3.13;;;2.83;;
53751;SDS011;41095;53.090;6.692;2023-03-08T11:07:55;2.80;;;2.50;;
53751;SDS011;41095;53.090;6.692;2023-03-08T11:10:23;5.40;;;3.75;;
53751;SDS011;41095;53.090;6.692;2023-03-08T11:13:14;4.93;;;4.20;;
53751;SDS011;41095;53.090;6.692;2023-03-08T11:18:38;4.95;;;4.32;;
53751;SDS011;41095;53.090;6.692;2023-03-08T11:21:12;5.57;;;5.07;;
53751;SDS011;41095;53.090;6.692;2023-03-08T11:23:48;6.07;;;4.68;;
53751;SDS011;41095;53.090;6.692;2023-03-08T11:29:05;6.68;;;4.45;;
53751;SDS011;41095;53.090;6.692;2023-03-08T11:32:13;4.18;;;3.78;;
53751;SDS011;41095;53.090;6.692;2023-03-08T11:40:55;4.25;;;3.63;;
53751;SDS011;41095;53.090;6.692;2023-03-08T11:50:02;7.10;;;4.95;;
53751;SDS011;41095;53.090;6.692;2023-03-08T11:58:14;6.10;;;5.50;;
53751;SDS011;41095;53.090;6.692;2023-03-08T12:00:47;5.32;;;4.60;;
53751;SDS011;41095;53.090;6.692;2023-03-08T12:03:19;5.32;;;4.10;;
53751;SDS011;41095;53.090;6.692;2023-03-08T12:05:55;3.22;;;2.83;;
53751;SDS011;41095;53.090;6.692;2023-03-08T12:11:33;4.65;;;3.65;;
53751;SDS011;41095;53.090;6.692;2023-03-08T12:14:25;3.75;;;3.17;;
53751;SDS011;41095;53.090;6.692;2023-03-08T12:17:09;4.63;;;3.78;;
53751;SDS011;41095;53.090;6.692;2023-03-08T12:19:49;6.80;;;3.50;;
53751;SDS011;41095;53.090;6.692;2023-03-08T12:22:37;4.03;;;3.35;;
53751;SDS011;41095;53.090;6.692;2023-03-08T12:27:57;5.25;;;3.05;;
53751;SDS011;41095;53.090;6.692;2023-03-08T12:33:24;4.68;;;4.28;;
53751;SDS011;41095;53.090;6.692;2023-03-08T12:35:57;6.45;;;3.35;;
53751;SDS011;41095;53.090;6.692;2023-03-08T12:38:29;5.03;;;3.85;;
53751;SDS011;41095;53.090;6.692;2023-03-08T12:44:05;5.43;;;3.92;;
53751;SDS011;41095;53.090;6.692;2023-03-08T12:46:51;5.28;;;3.38;;
53751;SDS011;41095;53.090;6.692;2023-03-08T12:49:26;3.05;;;2.28;;
53751;SDS011;41095;53.090;6.692;2023-03-08T12:51:57;2.78;;;2.22;;
53751;SDS011;41095;53.090;6.692;2023-03-08T12:54:41;3.35;;;1.90;;
53751;SDS011;41095;53.090;6.692;2023-03-08T12:57:14;1.45;;;1.30;;
53751;SDS011;41095;53.090;6.692;2023-03-08T12:59:45;1.92;;;1.83;;
53751;SDS011;41095;53.090;6.692;2023-03-08T13:02:22;2.92;;;1.88;;
53751;SDS011;41095;53.090;6.692;2023-03-08T13:05:29;3.17;;;1.83;;
53751;SDS011;41095;53.090;6.692;2023-03-08T13:11:23;3.35;;;1.80;;
53751;SDS011;41095;53.090;6.692;2023-03-08T13:18:40;2.03;;;1.85;;
53751;SDS011;41095;53.090;6.692;2023-03-08T13:24:40;2.30;;;1.90;;
53751;SDS011;41095;53.090;6.692;2023-03-08T13:26:42;4.40;;;1.77;;
53751;SDS011;41095;53.090;6.692;2023-03-08T13:29:14;2.80;;;2.00;;
53751;SDS011;41095;53.090;6.692;2023-03-08T13:31:42;3.67;;;2.28;;
53751;SDS011;41095;53.090;6.692;2023-03-08T13:37:24;3.67;;;2.10;;
53751;SDS011;41095;53.090;6.692;2023-03-08T13:39:52;2.17;;;1.95;;
53751;SDS011;41095;53.090;6.692;2023-03-08T13:42:23;3.08;;;2.30;;
53751;SDS011;41095;53.090;6.692;2023-03-08T13:44:51;2.47;;;2.22;;
53751;SDS011;41095;53.090;6.692;2023-03-08T13:47:25;2.83;;;1.80;;
53751;SDS011;41095;53.090;6.692;2023-03-08T13:49:54;2.28;;;1.60;;
53751;SDS011;41095;53.090;6.692;2023-03-08T13:52:22;2.58;;;1.85;;
53751;SDS011;41095;53.090;6.692;2023-03-08T13:55:00;1.63;;;1.42;;
53751;SDS011;41095;53.090;6.692;2023-03-08T13:57:30;3.92;;;1.63;;
53751;SDS011;41095;53.090;6.692;2023-03-08T14:00:01;4.35;;;1.90;;
53751;SDS011;41095;53.090;6.692;2023-03-08T14:02:53;2.72;;;1.80;;
53751;SDS011;41095;53.090;6.692;2023-03-08T14:05:31;3.65;;;2.03;;
53751;SDS011;41095;53.090;6.692;2023-03-08T14:08:17;3.22;;;2.00;;
53751;SDS011;41095;53.090;6.692;2023-03-08T14:10:45;2.33;;;2.00;;
53751;SDS011;41095;53.090;6.692;2023-03-08T14:13:15;2.33;;;1.90;;
53751;SDS011;41095;53.090;6.692;2023-03-08T14:15:53;5.28;;;2.50;;
53751;SDS011;41095;53.090;6.692;2023-03-08T14:18:22;2.83;;;2.38;;
53751;SDS011;41095;53.090;6.692;2023-03-08T14:21:05;3.00;;;2.72;;
53751;SDS011;41095;53.090;6.692;2023-03-08T14:23:38;3.35;;;2.08;;
53751;SDS011;41095;53.090;6.692;2023-03-08T14:26:06;2.90;;;1.70;;
53751;SDS011;41095;53.090;6.692;2023-03-08T14:29:00;2.58;;;2.05;;
53751;SDS011;41095;53.090;6.692;2023-03-08T14:31:36;4.40;;;2.58;;
53751;SDS011;41095;53.090;6.692;2023-03-08T14:34:16;3.55;;;2.33;;
53751;SDS011;41095;53.090;6.692;2023-03-08T14:39:35;3.47;;;2.65;;
53751;SDS011;41095;53.090;6.692;2023-03-08T14:45:05;4.43;;;3.13;;
53751;SDS011;41095;53.090;6.692;2023-03-08T14:48:54;4.03;;;2.60;;
53751;SDS011;41095;53.090;6.692;2023-03-08T14:50:59;3.72;;;3.40;;
53751;SDS011;41095;53.090;6.692;2023-03-08T14:53:27;3.72;;;3.35;;
53751;SDS011;41095;53.090;6.692;2023-03-08T14:55:59;3.88;;;3.47;;
53751;SDS011;41095;53.090;6.692;2023-03-08T14:58:30;3.40;;;2.95;;
53751;SDS011;41095;53.090;6.692;2023-03-08T15:00:58;5.03;;;3.78;;
53751;SDS011;41095;53.090;6.692;2023-03-08T15:03:26;4.25;;;3.85;;
53751;SDS011;41095;53.090;6.692;2023-03-08T15:05:53;4.82;;;3.83;;
53751;SDS011;41095;53.090;6.692;2023-03-08T15:08:20;5.25;;;3.47;;
53751;SDS011;41095;53.090;6.692;2023-03-08T15:10:46;7.60;;;3.97;;
53751;SDS011;41095;53.090;6.692;2023-03-08T15:13:20;5.45;;;4.13;;
53751;SDS011;41095;53.090;6.692;2023-03-08T15:15:47;6.90;;;4.80;;
53751;SDS011;41095;53.090;6.692;2023-03-08T15:18:13;7.88;;;4.43;;
53751;SDS011;41095;53.090;6.692;2023-03-08T15:20:39;7.90;;;4.85;;
53751;SDS011;41095;53.090;6.692;2023-03-08T15:23:21;6.22;;;4.70;;
53751;SDS011;41095;53.090;6.692;2023-03-08T15:25:48;4.82;;;3.50;;
53751;SDS011;41095;53.090;6.692;2023-03-08T15:28:15;6.43;;;3.88;;
53751;SDS011;41095;53.090;6.692;2023-03-08T15:30:42;6.28;;;3.70;;
53751;SDS011;41095;53.090;6.692;2023-03-08T15:33:08;5.63;;;3.53;;
53751;SDS011;41095;53.090;6.692;2023-03-08T15:35:34;4.03;;;3.40;;
53751;SDS011;41095;53.090;6.692;2023-03-08T15:38:00;3.10;;;2.88;;
53751;SDS011;41095;53.090;6.692;2023-03-08T15:40:26;5.05;;;3.15;;
53751;SDS011;41095;53.090;6.692;2023-03-08T15:42:53;3.67;;;2.50;;
53751;SDS011;41095;53.090;6.692;2023-03-08T15:45:19;4.57;;;2.53;;
53751;SDS011;41095;53.090;6.692;2023-03-08T15:50:31;3.40;;;2.28;;
53751;SDS011;41095;53.090;6.692;2023-03-08T15:52:58;3.10;;;2.00;;
53751;SDS011;41095;53.090;6.692;2023-03-08T15:55:25;3.42;;;2.30;;
53751;SDS011;41095;53.090;6.692;2023-03-08T15:57:52;2.97;;;2.60;;
53751;SDS011;41095;53.090;6.692;2023-03-08T16:00:19;3.67;;;2.22;;
53751;SDS011;41095;53.090;6.692;2023-03-08T16:02:46;3.45;;;2.10;;
53751;SDS011;41095;53.090;6.692;2023-03-08T16:05:13;3.33;;;2.72;;
53751;SDS011;41095;53.090;6.692;2023-03-08T16:07:40;3.47;;;2.30;;
53751;SDS011;41095;53.090;6.692;2023-03-08T16:10:07;4.50;;;2.92;;
53751;SDS011;41095;53.090;6.692;2023-03-08T16:12:35;3.22;;;2.28;;
53751;SDS011;41095;53.090;6.692;2023-03-08T16:15:01;3.05;;;2.40;;
53751;SDS011;41095;53.090;6.692;2023-03-08T16:17:28;3.05;;;2.50;;
53751;SDS011;41095;53.090;6.692;2023-03-08T16:19:54;3.40;;;2.30;;
53751;SDS011;41095;53.090;6.692;2023-03-08T16:22:20;2.95;;;2.47;;
53751;SDS011;41095;53.090;6.692;2023-03-08T16:24:47;4.43;;;2.33;;
53751;SDS011;41095;53.090;6.692;2023-03-08T16:27:12;4.40;;;2.80;;